sensor_id;sensor_type;location;lat;lon;timestamp;pressure;altitude;pressure_sealevel;temperature;humidity
4814;BME280;15375;48.540;9.268;2022-09-29T00:01:46;95835.25;;;6.57;100.00
4814;BME280;15375;48.540;9.268;2022-09-29T00:04:12;95848.97;;;6.66;100.00
4814;BME280;15375;48.540;9.268;2022-09-29T00:06:37;95834.84;;;6.59;100.00
4814;BME280;15375;48.540;9.268;2022-09-29T00:09:03;95824.09;;;6.55;100.00
4814;BME280;15375;48.540;9.268;2022-09-29T00:11:28;95865.66;;;6.93;100.00
4814;BME280;15375;48.540;9.268;2022-09-29T00:13:54;95860.16;;;6.97;100.00
4814;BME280;15375;48.540;9.268;2022-09-29T00:16:20;95842.25;;;6.71;100.00
4814;BME280;15375;48.540;9.268;2022-09-29T00:18:45;95847.59;;;6.74;100.00
4814;BME280;15375;48.540;9.268;2022-09-29T00:21:16;95862.94;;;6.93;100.00
4814;BME280;15375;48.540;9.268;2022-09-29T00:23:44;95860.34;;;7.02;100.00
4814;BME280;15375;48.540;9.268;2022-09-29T00:26:13;95825.72;;;6.81;100.00
4814;BME280;15375;48.540;9.268;2022-09-29T00:28:47;95855.81;;;6.99;100.00
4814;BME280;15375;48.540;9.268;2022-09-29T00:31:13;95838.31;;;6.88;100.00
4814;BME280;15375;48.540;9.268;2022-09-29T00:33:39;95851.91;;;7.00;100.00
4814;BME280;15375;48.540;9.268;2022-09-29T00:36:11;95843.34;;;7.02;100.00
4814;BME280;15375;48.540;9.268;2022-09-29T00:38:37;95854.63;;;7.13;100.00
4814;BME280;15375;48.540;9.268;2022-09-29T00:41:03;95846.28;;;7.07;100.00
4814;BME280;15375;48.540;9.268;2022-09-29T00:46:18;95848.78;;;7.02;100.00
4814;BME280;15375;48.540;9.268;2022-09-29T00:48:46;95854.19;;;7.02;100.00
4814;BME280;15375;48.540;9.268;2022-09-29T00:51:12;95858.53;;;6.99;100.00
4814;BME280;15375;48.540;9.268;2022-09-29T00:53:40;95828.69;;;6.87;100.00
4814;BME280;15375;48.540;9.268;2022-09-29T00:56:09;95834.84;;;6.87;100.00
4814;BME280;15375;48.540;9.268;2022-09-29T00:58:55;95838.47;;;6.97;100.00
4814;BME280;15375;48.540;9.268;2022-09-29T01:01:25;95843.34;;;7.02;100.00
4814;BME280;15375;48.540;9.268;2022-09-29T01:03:57;95834.00;;;7.03;100.00
4814;BME280;15375;48.540;9.268;2022-09-29T01:06:30;95846.50;;;7.13;100.00
4814;BME280;15375;48.540;9.268;2022-09-29T01:09:05;95841.28;;;7.06;100.00
4814;BME280;15375;48.540;9.268;2022-09-29T01:11:31;95852.69;;;7.14;100.00
4814;BME280;15375;48.540;9.268;2022-09-29T01:13:59;95825.22;;;6.99;100.00
4814;BME280;15375;48.540;9.268;2022-09-29T01:16:32;95827.84;;;7.15;100.00
4814;BME280;15375;48.540;9.268;2022-09-29T01:19:00;95836.53;;;7.23;100.00
4814;BME280;15375;48.540;9.268;2022-09-29T01:24:38;95832.34;;;7.22;100.00
4814;BME280;15375;48.540;9.268;2022-09-29T01:38:44;95837.09;;;7.30;100.00
4814;BME280;15375;48.540;9.268;2022-09-29T01:41:30;95843.06;;;7.38;100.00
4814;BME280;15375;48.540;9.268;2022-09-29T01:44:23;95848.72;;;7.31;100.00
4814;BME280;15375;48.540;9.268;2022-09-29T01:46:58;95845.25;;;7.30;100.00
4814;BME280;15375;48.540;9.268;2022-09-29T01:49:29;95849.25;;;7.26;100.00
4814;BME280;15375;48.540;9.268;2022-09-29T01:52:00;95850.66;;;7.30;100.00
4814;BME280;15375;48.540;9.268;2022-09-29T01:54:49;95838.09;;;7.24;100.00
4814;BME280;15375;48.540;9.268;2022-09-29T02:00:03;95837.63;;;7.25;100.00
4814;BME280;15375;48.540;9.268;2022-09-29T02:02:39;95833.31;;;7.28;100.00
4814;BME280;15375;48.540;9.268;2022-09-29T02:05:13;95832.97;;;7.26;100.00
4814;BME280;15375;48.540;9.268;2022-09-29T02:07:43;95831.81;;;7.27;100.00
4814;BME280;15375;48.540;9.268;2022-09-29T02:10:13;95826.69;;;7.16;100.00
4814;BME280;15375;48.540;9.268;2022-09-29T02:12:42;95836.91;;;7.25;100.00
4814;BME280;15375;48.540;9.268;2022-09-29T02:15:13;95836.91;;;7.25;100.00
4814;BME280;15375;48.540;9.268;2022-09-29T02:17:42;95814.22;;;7.19;100.00
4814;BME280;15375;48.540;9.268;2022-09-29T02:20:10;95841.56;;;7.37;100.00
4814;BME280;15375;48.540;9.268;2022-09-29T02:22:37;95834.94;;;7.38;100.00
4814;BME280;15375;48.540;9.268;2022-09-29T02:25:03;95850.47;;;7.37;100.00
4814;BME280;15375;48.540;9.268;2022-09-29T02:27:29;95856.00;;;7.34;100.00
4814;BME280;15375;48.540;9.268;2022-09-29T02:29:57;95848.41;;;7.29;100.00
4814;BME280;15375;48.540;9.268;2022-09-29T02:32:23;95833.41;;;7.24;100.00
4814;BME280;15375;48.540;9.268;2022-09-29T02:34:50;95825.16;;;7.28;100.00
4814;BME280;15375;48.540;9.268;2022-09-29T02:37:34;95856.00;;;7.46;100.00
4814;BME280;15375;48.540;9.268;2022-09-29T02:47:50;95829.88;;;7.52;100.00
4814;BME280;15375;48.540;9.268;2022-09-29T02:50:52;95835.41;;;7.49;100.00
4814;BME280;15375;48.540;9.268;2022-09-29T02:56:33;95810.75;;;7.43;100.00
4814;BME280;15375;48.540;9.268;2022-09-29T02:59:06;95821.41;;;7.50;100.00
4814;BME280;15375;48.540;9.268;2022-09-29T03:01:33;95815.53;;;7.39;100.00
4814;BME280;15375;48.540;9.268;2022-09-29T03:03:59;95809.78;;;7.25;100.00
4814;BME280;15375;48.540;9.268;2022-09-29T03:06:25;95821.25;;;7.16;100.00
4814;BME280;15375;48.540;9.268;2022-09-29T03:08:51;95786.19;;;6.96;100.00
4814;BME280;15375;48.540;9.268;2022-09-29T03:11:17;95811.72;;;7.12;100.00
4814;BME280;15375;48.540;9.268;2022-09-29T03:13:42;95806.16;;;7.15;100.00
4814;BME280;15375;48.540;9.268;2022-09-29T03:16:08;95812.34;;;7.16;100.00
4814;BME280;15375;48.540;9.268;2022-09-29T03:18:33;95828.41;;;7.23;100.00
4814;BME280;15375;48.540;9.268;2022-09-29T03:20:59;95791.75;;;7.05;100.00
4814;BME280;15375;48.540;9.268;2022-09-29T03:23:24;95815.94;;;7.25;100.00
4814;BME280;15375;48.540;9.268;2022-09-29T03:25:50;95825.06;;;7.31;100.00
4814;BME280;15375;48.540;9.268;2022-09-29T03:28:15;95796.56;;;7.27;100.00
4814;BME280;15375;48.540;9.268;2022-09-29T03:30:41;95809.97;;;7.30;100.00
4814;BME280;15375;48.540;9.268;2022-09-29T03:33:06;95794.69;;;7.24;100.00
4814;BME280;15375;48.540;9.268;2022-09-29T03:35:31;95790.03;;;7.24;100.00
4814;BME280;15375;48.540;9.268;2022-09-29T03:37:58;95803.84;;;7.42;100.00
4814;BME280;15375;48.540;9.268;2022-09-29T03:40:24;95778.44;;;7.24;100.00
4814;BME280;15375;48.540;9.268;2022-09-29T03:42:49;95782.31;;;7.23;100.00
4814;BME280;15375;48.540;9.268;2022-09-29T03:45:15;95800.66;;;7.31;100.00
4814;BME280;15375;48.540;9.268;2022-09-29T03:47:40;95768.88;;;7.06;100.00
4814;BME280;15375;48.540;9.268;2022-09-29T03:50:06;95785.38;;;7.12;100.00
4814;BME280;15375;48.540;9.268;2022-09-29T03:52:31;95796.94;;;7.13;100.00
4814;BME280;15375;48.540;9.268;2022-09-29T03:54:56;95788.38;;;7.01;100.00
4814;BME280;15375;48.540;9.268;2022-09-29T03:57:22;95799.97;;;7.02;100.00
4814;BME280;15375;48.540;9.268;2022-09-29T03:59:47;95806.56;;;6.88;100.00
4814;BME280;15375;48.540;9.268;2022-09-29T04:02:13;95792.72;;;6.70;100.00
4814;BME280;15375;48.540;9.268;2022-09-29T04:04:38;95798.69;;;6.65;100.00
4814;BME280;15375;48.540;9.268;2022-09-29T04:07:03;95782.38;;;6.53;100.00
4814;BME280;15375;48.540;9.268;2022-09-29T04:09:29;95787.47;;;6.51;100.00
4814;BME280;15375;48.540;9.268;2022-09-29T04:11:55;95794.56;;;6.61;100.00
4814;BME280;15375;48.540;9.268;2022-09-29T04:14:20;95801.31;;;6.69;100.00
4814;BME280;15375;48.540;9.268;2022-09-29T04:16:46;95779.59;;;6.56;100.00
4814;BME280;15375;48.540;9.268;2022-09-29T04:19:11;95792.28;;;6.59;100.00
4814;BME280;15375;48.540;9.268;2022-09-29T04:21:36;95805.94;;;6.68;100.00
4814;BME280;15375;48.540;9.268;2022-09-29T04:24:02;95804.22;;;6.62;100.00
4814;BME280;15375;48.540;9.268;2022-09-29T04:26:27;95800.50;;;6.56;100.00
4814;BME280;15375;48.540;9.268;2022-09-29T04:28:52;95797.34;;;6.57;100.00
4814;BME280;15375;48.540;9.268;2022-09-29T04:31:19;95803.00;;;6.63;100.00
4814;BME280;15375;48.540;9.268;2022-09-29T04:33:44;95798.69;;;6.65;100.00
4814;BME280;15375;48.540;9.268;2022-09-29T04:36:10;95795.78;;;6.72;100.00
4814;BME280;15375;48.540;9.268;2022-09-29T04:38:35;95794.69;;;6.70;100.00
4814;BME280;15375;48.540;9.268;2022-09-29T04:41:01;95794.88;;;6.63;100.00
4814;BME280;15375;48.540;9.268;2022-09-29T04:43:26;95810.19;;;6.69;100.00
4814;BME280;15375;48.540;9.268;2022-09-29T04:45:51;95804.34;;;6.71;100.00
4814;BME280;15375;48.540;9.268;2022-09-29T04:48:17;95813.47;;;6.77;100.00
4814;BME280;15375;48.540;9.268;2022-09-29T04:50:42;95802.72;;;6.73;100.00
4814;BME280;15375;48.540;9.268;2022-09-29T04:53:08;95792.09;;;6.66;100.00
4814;BME280;15375;48.540;9.268;2022-09-29T04:55:38;95809.88;;;6.80;100.00
4814;BME280;15375;48.540;9.268;2022-09-29T04:58:04;95801.88;;;6.76;100.00
4814;BME280;15375;48.540;9.268;2022-09-29T05:00:30;95816.31;;;6.86;100.00
4814;BME280;15375;48.540;9.268;2022-09-29T05:02:56;95804.56;;;6.76;100.00
4814;BME280;15375;48.540;9.268;2022-09-29T05:05:22;95806.75;;;6.81;100.00
4814;BME280;15375;48.540;9.268;2022-09-29T05:07:47;95802.50;;;6.80;100.00
4814;BME280;15375;48.540;9.268;2022-09-29T05:10:13;95811.50;;;6.77;100.00
4814;BME280;15375;48.540;9.268;2022-09-29T05:12:39;95813.13;;;6.75;100.00
4814;BME280;15375;48.540;9.268;2022-09-29T05:15:04;95814.88;;;6.81;100.00
4814;BME280;15375;48.540;9.268;2022-09-29T05:17:30;95799.00;;;6.67;100.00
4814;BME280;15375;48.540;9.268;2022-09-29T05:19:56;95792.94;;;6.63;100.00
4814;BME280;15375;48.540;9.268;2022-09-29T05:22:21;95799.97;;;6.61;100.00
4814;BME280;15375;48.540;9.268;2022-09-29T05:24:51;95797.69;;;6.59;100.00
4814;BME280;15375;48.540;9.268;2022-09-29T05:27:17;95794.50;;;6.48;100.00
4814;BME280;15375;48.540;9.268;2022-09-29T05:29:42;95823.16;;;6.62;100.00
4814;BME280;15375;48.540;9.268;2022-09-29T05:32:08;95816.53;;;6.63;100.00
4814;BME280;15375;48.540;9.268;2022-09-29T05:34:33;95802.06;;;6.69;100.00
4814;BME280;15375;48.540;9.268;2022-09-29T05:36:58;95829.09;;;6.85;100.00
4814;BME280;15375;48.540;9.268;2022-09-29T05:39:24;95792.94;;;6.63;100.00
4814;BME280;15375;48.540;9.268;2022-09-29T05:41:49;95828.09;;;6.79;100.00
4814;BME280;15375;48.540;9.268;2022-09-29T05:44:14;95821.34;;;6.71;100.00
4814;BME280;15375;48.540;9.268;2022-09-29T05:46:41;95842.31;;;6.83;100.00
4814;BME280;15375;48.540;9.268;2022-09-29T05:49:06;95830.63;;;6.86;100.00
4814;BME280;15375;48.540;9.268;2022-09-29T05:51:31;95821.81;;;6.82;100.00
4814;BME280;15375;48.540;9.268;2022-09-29T05:53:57;95826.94;;;6.93;100.00
4814;BME280;15375;48.540;9.268;2022-09-29T05:56:24;95844.31;;;7.08;100.00
4814;BME280;15375;48.540;9.268;2022-09-29T05:58:50;95829.03;;;7.01;100.00
4814;BME280;15375;48.540;9.268;2022-09-29T06:01:18;95848.69;;;7.18;100.00
4814;BME280;15375;48.540;9.268;2022-09-29T06:03:44;95843.28;;;7.18;100.00
4814;BME280;15375;48.540;9.268;2022-09-29T06:06:16;95851.97;;;7.26;100.00
4814;BME280;15375;48.540;9.268;2022-09-29T06:08:43;95839.78;;;7.18;100.00
4814;BME280;15375;48.540;9.268;2022-09-29T06:11:11;95855.66;;;7.32;100.00
4814;BME280;15375;48.540;9.268;2022-09-29T06:13:41;95843.81;;;7.26;100.00
4814;BME280;15375;48.540;9.268;2022-09-29T06:16:07;95835.28;;;7.27;100.00
4814;BME280;15375;48.540;9.268;2022-09-29T06:18:33;95840.16;;;7.32;100.00
4814;BME280;15375;48.540;9.268;2022-09-29T06:21:03;95850.06;;;7.51;100.00
4814;BME280;15375;48.540;9.268;2022-09-29T06:23:29;95826.41;;;7.39;100.00
4814;BME280;15375;48.540;9.268;2022-09-29T06:25:58;95845.72;;;7.54;100.00
4814;BME280;15375;48.540;9.268;2022-09-29T06:28:26;95833.34;;;7.53;100.00
4814;BME280;15375;48.540;9.268;2022-09-29T06:30:58;95841.16;;;7.63;100.00
4814;BME280;15375;48.540;9.268;2022-09-29T06:33:25;95823.03;;;7.60;100.00
4814;BME280;15375;48.540;9.268;2022-09-29T06:35:50;95852.22;;;7.82;100.00
4814;BME280;15375;48.540;9.268;2022-09-29T06:38:34;95846.16;;;7.78;100.00
4814;BME280;15375;48.540;9.268;2022-09-29T06:41:01;95839.22;;;7.77;100.00
4814;BME280;15375;48.540;9.268;2022-09-29T06:43:26;95846.16;;;7.90;100.00
4814;BME280;15375;48.540;9.268;2022-09-29T06:45:52;95835.63;;;7.92;100.00
4814;BME280;15375;48.540;9.268;2022-09-29T06:48:17;95861.34;;;8.13;100.00
4814;BME280;15375;48.540;9.268;2022-09-29T06:50:42;95839.94;;;8.02;100.00
4814;BME280;15375;48.540;9.268;2022-09-29T06:53:08;95871.22;;;8.19;100.00
4814;BME280;15375;48.540;9.268;2022-09-29T06:55:33;95839.41;;;8.07;100.00
4814;BME280;15375;48.540;9.268;2022-09-29T06:57:59;95869.28;;;8.32;100.00
4814;BME280;15375;48.540;9.268;2022-09-29T07:00:24;95863.59;;;8.40;100.00
4814;BME280;15375;48.540;9.268;2022-09-29T07:02:50;95857.16;;;8.46;100.00
4814;BME280;15375;48.540;9.268;2022-09-29T07:05:15;95857.47;;;8.61;100.00
4814;BME280;15375;48.540;9.268;2022-09-29T07:07:41;95876.97;;;8.81;100.00
4814;BME280;15375;48.540;9.268;2022-09-29T07:10:07;95855.44;;;8.74;100.00
4814;BME280;15375;48.540;9.268;2022-09-29T07:12:33;95867.34;;;8.89;100.00
4814;BME280;15375;48.540;9.268;2022-09-29T07:14:58;95845.72;;;8.85;100.00
4814;BME280;15375;48.540;9.268;2022-09-29T07:17:24;95847.13;;;8.90;100.00
4814;BME280;15375;48.540;9.268;2022-09-29T07:19:49;95864.06;;;8.94;100.00
4814;BME280;15375;48.540;9.268;2022-09-29T07:22:14;95874.56;;;9.05;100.00
4814;BME280;15375;48.540;9.268;2022-09-29T07:24:40;95849.78;;;9.03;100.00
4814;BME280;15375;48.540;9.268;2022-09-29T07:27:07;95842.31;;;8.94;100.00
4814;BME280;15375;48.540;9.268;2022-09-29T07:29:33;95864.78;;;9.07;100.00
4814;BME280;15375;48.540;9.268;2022-09-29T07:31:59;95860.53;;;9.06;100.00
4814;BME280;15375;48.540;9.268;2022-09-29T07:34:24;95862.25;;;9.13;100.00
4814;BME280;15375;48.540;9.268;2022-09-29T07:36:50;95872.75;;;9.23;100.00
4814;BME280;15375;48.540;9.268;2022-09-29T07:39:16;95877.47;;;9.32;100.00
4814;BME280;15375;48.540;9.268;2022-09-29T07:41:41;95882.78;;;9.35;100.00
4814;BME280;15375;48.540;9.268;2022-09-29T07:44:07;95876.03;;;9.40;100.00
4814;BME280;15375;48.540;9.268;2022-09-29T07:46:32;95865.16;;;9.18;100.00
4814;BME280;15375;48.540;9.268;2022-09-29T07:48:58;95876.53;;;9.26;100.00
4814;BME280;15375;48.540;9.268;2022-09-29T07:51:23;95870.03;;;9.23;100.00
4814;BME280;15375;48.540;9.268;2022-09-29T07:53:48;95860.25;;;9.35;100.00
4814;BME280;15375;48.540;9.268;2022-09-29T07:56:20;95891.50;;;9.74;100.00
4814;BME280;15375;48.540;9.268;2022-09-29T07:58:47;95887.91;;;9.86;100.00
4814;BME280;15375;48.540;9.268;2022-09-29T08:01:14;95890.13;;;10.09;100.00
4814;BME280;15375;48.540;9.268;2022-09-29T08:03:42;95887.16;;;10.25;100.00
4814;BME280;15375;48.540;9.268;2022-09-29T08:06:09;95870.56;;;10.32;100.00
4814;BME280;15375;48.540;9.268;2022-09-29T08:08:36;95888.03;;;10.62;100.00
4814;BME280;15375;48.540;9.268;2022-09-29T08:11:04;95868.63;;;10.60;100.00
4814;BME280;15375;48.540;9.268;2022-09-29T08:13:30;95883.19;;;10.66;100.00
4814;BME280;15375;48.540;9.268;2022-09-29T08:16:00;95859.03;;;10.37;100.00
4814;BME280;15375;48.540;9.268;2022-09-29T08:18:27;95871.03;;;10.58;100.00
4814;BME280;15375;48.540;9.268;2022-09-29T08:20:52;95886.06;;;10.71;100.00
4814;BME280;15375;48.540;9.268;2022-09-29T08:23:21;95874.97;;;10.48;100.00
4814;BME280;15375;48.540;9.268;2022-09-29T08:25:47;95892.09;;;10.48;100.00
4814;BME280;15375;48.540;9.268;2022-09-29T08:28:13;95878.03;;;10.59;100.00
4814;BME280;15375;48.540;9.268;2022-09-29T08:30:38;95908.50;;;10.84;100.00
4814;BME280;15375;48.540;9.268;2022-09-29T08:33:03;95905.47;;;10.73;100.00
4814;BME280;15375;48.540;9.268;2022-09-29T08:35:32;95885.75;;;10.60;100.00
4814;BME280;15375;48.540;9.268;2022-09-29T08:37:58;95888.16;;;10.49;100.00
4814;BME280;15375;48.540;9.268;2022-09-29T08:40:27;95924.19;;;10.53;100.00
4814;BME280;15375;48.540;9.268;2022-09-29T08:43:13;95915.72;;;10.51;100.00
4814;BME280;15375;48.540;9.268;2022-09-29T08:45:45;95926.03;;;10.65;100.00
4814;BME280;15375;48.540;9.268;2022-09-29T08:48:19;95910.25;;;10.51;100.00
4814;BME280;15375;48.540;9.268;2022-09-29T08:50:55;95933.19;;;10.90;100.00
4814;BME280;15375;48.540;9.268;2022-09-29T08:53:24;95926.69;;;11.06;100.00
4814;BME280;15375;48.540;9.268;2022-09-29T08:55:55;95931.84;;;11.49;100.00
4814;BME280;15375;48.540;9.268;2022-09-29T08:58:21;95911.34;;;11.63;100.00
4814;BME280;15375;48.540;9.268;2022-09-29T09:14:14;95913.31;;;11.62;100.00
4814;BME280;15375;48.540;9.268;2022-09-29T09:19:48;95929.50;;;12.02;100.00
4814;BME280;15375;48.540;9.268;2022-09-29T09:25:10;95949.34;;;12.77;100.00
4814;BME280;15375;48.540;9.268;2022-09-29T09:27:46;95948.56;;;13.09;100.00
4814;BME280;15375;48.540;9.268;2022-09-29T09:30:18;95941.78;;;13.43;97.05
4814;BME280;15375;48.540;9.268;2022-09-29T09:33:09;95933.56;;;13.43;96.22
4814;BME280;15375;48.540;9.268;2022-09-29T09:35:49;95947.75;;;13.56;95.88
4814;BME280;15375;48.540;9.268;2022-09-29T09:38:20;95943.59;;;13.61;93.78
4814;BME280;15375;48.540;9.268;2022-09-29T09:40:53;95954.06;;;13.62;94.43
4814;BME280;15375;48.540;9.268;2022-09-29T09:43:30;95939.03;;;13.43;96.95
4814;BME280;15375;48.540;9.268;2022-09-29T09:48:40;95933.94;;;12.65;100.00
4814;BME280;15375;48.540;9.268;2022-09-29T09:51:44;95956.81;;;12.76;100.00
4814;BME280;15375;48.540;9.268;2022-09-29T09:54:24;95943.44;;;12.46;100.00
4814;BME280;15375;48.540;9.268;2022-09-29T10:02:22;95938.44;;;12.44;99.10
4814;BME280;15375;48.540;9.268;2022-09-29T10:04:50;95957.84;;;12.46;98.00
4814;BME280;15375;48.540;9.268;2022-09-29T10:07:18;95964.72;;;12.42;100.00
4814;BME280;15375;48.540;9.268;2022-09-29T10:09:45;95930.63;;;12.19;98.67
4814;BME280;15375;48.540;9.268;2022-09-29T10:12:15;95921.56;;;12.46;95.23
4814;BME280;15375;48.540;9.268;2022-09-29T10:14:50;95962.16;;;12.71;97.18
4814;BME280;15375;48.540;9.268;2022-09-29T10:17:18;95913.06;;;12.44;98.32
4814;BME280;15375;48.540;9.268;2022-09-29T10:19:58;95937.66;;;12.76;96.05
4814;BME280;15375;48.540;9.268;2022-09-29T10:22:26;95939.47;;;12.79;90.15
4814;BME280;15375;48.540;9.268;2022-09-29T10:24:52;95954.06;;;12.76;93.85
4814;BME280;15375;48.540;9.268;2022-09-29T10:27:22;95938.19;;;12.66;94.45
4814;BME280;15375;48.540;9.268;2022-09-29T10:29:50;95942.72;;;12.93;92.29
4814;BME280;15375;48.540;9.268;2022-09-29T10:32:29;95955.41;;;13.05;88.81
4814;BME280;15375;48.540;9.268;2022-09-29T10:37:41;95951.81;;;12.99;87.05
4814;BME280;15375;48.540;9.268;2022-09-29T10:42:36;95936.44;;;13.25;87.22
4814;BME280;15375;48.540;9.268;2022-09-29T10:45:18;95941.28;;;13.30;84.27
4814;BME280;15375;48.540;9.268;2022-09-29T10:48:05;95959.41;;;13.42;85.79
4814;BME280;15375;48.540;9.268;2022-09-29T10:53:37;95953.44;;;14.11;83.50
4814;BME280;15375;48.540;9.268;2022-09-29T10:56:18;95935.31;;;13.99;82.61
4814;BME280;15375;48.540;9.268;2022-09-29T10:58:52;95946.34;;;14.19;84.95
4814;BME280;15375;48.540;9.268;2022-09-29T11:01:19;95935.09;;;14.02;81.51
4814;BME280;15375;48.540;9.268;2022-09-29T11:04:04;95949.34;;;14.50;80.61
4814;BME280;15375;48.540;9.268;2022-09-29T11:06:33;95958.16;;;14.25;76.11
4814;BME280;15375;48.540;9.268;2022-09-29T11:09:04;95959.88;;;13.93;80.97
4814;BME280;15375;48.540;9.268;2022-09-29T11:13:57;95962.34;;;14.35;80.04
4814;BME280;15375;48.540;9.268;2022-09-29T11:16:32;95941.41;;;14.87;75.17
4814;BME280;15375;48.540;9.268;2022-09-29T11:19:05;95943.09;;;14.64;72.64
4814;BME280;15375;48.540;9.268;2022-09-29T11:21:47;95947.78;;;14.99;72.68
4814;BME280;15375;48.540;9.268;2022-09-29T11:28:08;95946.41;;;14.89;69.86
4814;BME280;15375;48.540;9.268;2022-09-29T11:30:14;95966.88;;;14.24;74.78
4814;BME280;15375;48.540;9.268;2022-09-29T11:43:49;95958.91;;;15.96;69.53
4814;BME280;15375;48.540;9.268;2022-09-29T11:54:21;95956.97;;;15.76;69.33
4814;BME280;15375;48.540;9.268;2022-09-29T12:08:40;95930.72;;;16.64;60.99
4814;BME280;15375;48.540;9.268;2022-09-29T12:11:24;95932.25;;;16.39;63.32
4814;BME280;15375;48.540;9.268;2022-09-29T12:16:31;95945.16;;;15.96;63.21
4814;BME280;15375;48.540;9.268;2022-09-29T12:19:02;95931.47;;;15.10;66.43
4814;BME280;15375;48.540;9.268;2022-09-29T12:21:35;95911.91;;;15.22;66.49
4814;BME280;15375;48.540;9.268;2022-09-29T12:24:05;95943.22;;;15.76;68.61
4814;BME280;15375;48.540;9.268;2022-09-29T12:26:35;95923.44;;;15.98;64.53
4814;BME280;15375;48.540;9.268;2022-09-29T12:29:04;95928.72;;;16.33;64.40
4814;BME280;15375;48.540;9.268;2022-09-29T12:31:44;95937.59;;;16.17;68.85
4814;BME280;15375;48.540;9.268;2022-09-29T12:34:20;95926.28;;;16.09;64.37
4814;BME280;15375;48.540;9.268;2022-09-29T12:36:58;95949.38;;;15.91;67.70
4814;BME280;15375;48.540;9.268;2022-09-29T12:40:07;95953.78;;;16.09;62.90
4814;BME280;15375;48.540;9.268;2022-09-29T12:45:25;95931.38;;;15.90;66.38
4814;BME280;15375;48.540;9.268;2022-09-29T12:51:12;95943.97;;;16.03;61.24
4814;BME280;15375;48.540;9.268;2022-09-29T12:56:33;95921.63;;;16.94;60.26
4814;BME280;15375;48.540;9.268;2022-09-29T12:59:06;95921.22;;;17.12;57.13
4814;BME280;15375;48.540;9.268;2022-09-29T13:01:35;95935.84;;;17.35;56.62
4814;BME280;15375;48.540;9.268;2022-09-29T13:07:15;95936.22;;;17.70;54.31
4814;BME280;15375;48.540;9.268;2022-09-29T13:12:57;95949.50;;;16.65;58.91
4814;BME280;15375;48.540;9.268;2022-09-29T13:21:01;95947.38;;;15.26;68.96
4814;BME280;15375;48.540;9.268;2022-09-29T13:23:46;95948.16;;;15.47;63.94
4814;BME280;15375;48.540;9.268;2022-09-29T13:26:39;95945.28;;;15.15;67.15
4814;BME280;15375;48.540;9.268;2022-09-29T13:29:13;95943.94;;;15.51;68.06
4814;BME280;15375;48.540;9.268;2022-09-29T13:31:40;95933.94;;;15.74;65.90
4814;BME280;15375;48.540;9.268;2022-09-29T13:34:24;95952.63;;;15.90;66.03
4814;BME280;15375;48.540;9.268;2022-09-29T13:36:52;95932.47;;;15.73;60.89
4814;BME280;15375;48.540;9.268;2022-09-29T13:39:23;95947.56;;;16.14;59.83
4814;BME280;15375;48.540;9.268;2022-09-29T13:41:54;95935.56;;;16.12;58.48
4814;BME280;15375;48.540;9.268;2022-09-29T13:44:25;95943.44;;;15.98;58.68
4814;BME280;15375;48.540;9.268;2022-09-29T13:46:53;95950.56;;;16.11;60.21
4814;BME280;15375;48.540;9.268;2022-09-29T13:54:27;95959.00;;;15.81;61.88
4814;BME280;15375;48.540;9.268;2022-09-29T13:59:41;95955.78;;;15.17;62.59
4814;BME280;15375;48.540;9.268;2022-09-29T14:13:03;95973.63;;;15.07;64.52
4814;BME280;15375;48.540;9.268;2022-09-29T14:15:50;95956.00;;;14.79;65.16
4814;BME280;15375;48.540;9.268;2022-09-29T14:18:45;95965.00;;;14.79;64.99
4814;BME280;15375;48.540;9.268;2022-09-29T14:21:46;95976.66;;;14.74;63.34
4814;BME280;15375;48.540;9.268;2022-09-29T14:24:44;95975.84;;;14.53;63.86
4814;BME280;15375;48.540;9.268;2022-09-29T14:29:44;95993.84;;;14.40;67.09
4814;BME280;15375;48.540;9.268;2022-09-29T14:32:19;95990.06;;;14.37;67.28
4814;BME280;15375;48.540;9.268;2022-09-29T14:34:47;95984.06;;;14.53;68.92
4814;BME280;15375;48.540;9.268;2022-09-29T14:37:19;95991.53;;;14.53;67.70
4814;BME280;15375;48.540;9.268;2022-09-29T14:39:46;95981.34;;;14.39;64.78
4814;BME280;15375;48.540;9.268;2022-09-29T14:42:32;96004.22;;;14.50;66.82
4814;BME280;15375;48.540;9.268;2022-09-29T14:44:59;95973.22;;;14.30;65.88
4814;BME280;15375;48.540;9.268;2022-09-29T14:48:20;96012.44;;;14.50;64.49
4814;BME280;15375;48.540;9.268;2022-09-29T14:51:16;95974.06;;;14.36;65.31
4814;BME280;15375;48.540;9.268;2022-09-29T15:00:17;95993.53;;;14.38;69.24
4814;BME280;15375;48.540;9.268;2022-09-29T15:02:45;95997.03;;;14.53;69.01
4814;BME280;15375;48.540;9.268;2022-09-29T15:05:30;96009.91;;;14.47;68.52
4814;BME280;15375;48.540;9.268;2022-09-29T15:07:57;96012.72;;;14.23;68.73
4814;BME280;15375;48.540;9.268;2022-09-29T15:10:26;96016.41;;;14.20;68.77
4814;BME280;15375;48.540;9.268;2022-09-29T15:12:52;95993.81;;;13.96;72.10
4814;BME280;15375;48.540;9.268;2022-09-29T15:15:40;95989.84;;;13.97;68.54
4814;BME280;15375;48.540;9.268;2022-09-29T15:18:37;96008.00;;;14.09;66.98
4814;BME280;15375;48.540;9.268;2022-09-29T15:21:14;96002.41;;;14.03;70.33
4814;BME280;15375;48.540;9.268;2022-09-29T15:26:13;96016.13;;;13.89;70.08
4814;BME280;15375;48.540;9.268;2022-09-29T15:28:40;96008.16;;;13.76;71.59
4814;BME280;15375;48.540;9.268;2022-09-29T15:31:10;96031.41;;;13.81;72.29
4814;BME280;15375;48.540;9.268;2022-09-29T15:33:38;96022.47;;;13.57;70.96
4814;BME280;15375;48.540;9.268;2022-09-29T15:36:18;96031.09;;;13.64;71.83
4814;BME280;15375;48.540;9.268;2022-09-29T15:38:45;96013.09;;;13.49;72.78
4814;BME280;15375;48.540;9.268;2022-09-29T15:43:52;96027.31;;;13.62;70.50
4814;BME280;15375;48.540;9.268;2022-09-29T15:46:21;96049.44;;;13.73;72.38
4814;BME280;15375;48.540;9.268;2022-09-29T15:51:30;96045.06;;;13.66;74.29
4814;BME280;15375;48.540;9.268;2022-09-29T15:53:55;96044.31;;;13.66;71.58
4814;BME280;15375;48.540;9.268;2022-09-29T15:56:24;96034.25;;;13.48;71.49
4814;BME280;15375;48.540;9.268;2022-09-29T15:58:49;96038.69;;;13.46;69.62
4814;BME280;15375;48.540;9.268;2022-09-29T16:01:15;96047.19;;;13.48;71.97
4814;BME280;15375;48.540;9.268;2022-09-29T16:03:43;96048.41;;;13.47;72.53
4814;BME280;15375;48.540;9.268;2022-09-29T16:06:30;96053.28;;;13.42;73.57
4814;BME280;15375;48.540;9.268;2022-09-29T16:09:12;96055.75;;;13.40;75.45